Longview, WA

9:21 AM PDT on September 21, 2014 (GMT -0700)
Scappoose Industrial | Change Station
CLOSE
Current Station
Airport
Location: Scappoose,
Elevation: 56 ft
Nearby Weather Stations

Elev 56 ft 45.77 °N, 122.86 °W | Updated 28 minutes ago

Mostly Cloudy
Mostly Cloudy
63 °F
Feels Like 63 °F
N
4
Wind Variable Wind from SSE

Today
High -- | Low -- °F
--% Chance of Precip.
Yesterday
High -- | Low -- °F
Precip. -- in
6:58 AM 7:11 PM
Waning Crescent, 6% visible
Pressure 29.89 in
Visibility 10.0 miles
Clouds Clear
Dew Point 57 °F
Humidity 81%
Rainfall 0.00 in
Snow Depth 0 in , 0 in , 0 in
UV 1 out of 12
Pollen 2.70 out of 12
Air Quality Not available.
Flu Activity Not available.
METAR KSPB 211553Z AUTO 15003KT 10SM CLR 17/14 A2989 RMK AO2 SLP120 T01720139

More Conditions Fewer Conditions

Pressure 29.89 in
Visibility 10.0 miles
Clouds Clear
Dew Point 57 °F
Humidity 81%
Rainfall 0.00 in
Snow Depth 0 in , 0 in , 0 in
UV 1 out of 12
Pollen 2.70 out of 12
Air Quality Not available.
Flu Activity Not available.
METAR KSPB 211553Z AUTO 15003KT 10SM CLR 17/14 A2989 RMK AO2 SLP120 T01720139

More Conditions Fewer Conditions

10-Day Weather Forecast

Almanac

Astronomy

Sep. 21, 2014 Rise Set
Actual Time 6:58 AM PDT 7:11 PM PDT
Civil Twilight 6:28 AM PDT 7:41 PM PDT
Nautical Twilight 5:52 AM PDT 8:16 PM PDT
Astronomical Twilight 5:16 AM PDT 8:52 PM PDT
Moon 4:30 AM PDT 5:55 PM PDT
Length of Visible Light 13h 13m
Length of Day
12h 13m
Tomorrow will be 3m 14s shorter.
Waning Crescent, 6% of the Moon is Illuminated
Today
Waning Crescent
Sep 24
New
Oct 1
First Quarter
Oct 8
Full
Oct 15
Last Quarter

Today's Extremes

State Highs State Lows

Community

WunderPhotos

Upload Photos

1,755,183 photos uploaded!

Nearby

Snow Depth

Station Depth Elevation
Elbow Lake 0 in 3200 ft
Stevens Pass 0 in 4070 ft
Touchet 0 in 5530 ft
Green Lake 0 in 6000 ft
Burnt Mountain 0 in 4200 ft

Earthquake Activity

City Distance Mag. Time & Date
No recent earthquake activity has been reported nearby.
Minimum magnitude displayed is 2.5.

Coastal Water Temperatures

Place Temperature
Astoria, OR 64.9 °F
Westport, WA 60.1 °F

Nearby Weather Stations